sensor_id;sensor_type;location;lat;lon;timestamp;temperature;humidity
23445;DHT22;11895;48.738;9.320;2022-10-16T00:01:35;16.30;99.90
23445;DHT22;11895;48.738;9.320;2022-10-16T00:04:03;16.30;99.90
23445;DHT22;11895;48.738;9.320;2022-10-16T00:06:31;16.30;99.90
23445;DHT22;11895;48.738;9.320;2022-10-16T00:08:58;16.20;99.90
23445;DHT22;11895;48.738;9.320;2022-10-16T00:11:27;16.10;99.90
23445;DHT22;11895;48.738;9.320;2022-10-16T00:14:00;16.10;99.90
23445;DHT22;11895;48.738;9.320;2022-10-16T00:16:31;16.10;99.90
23445;DHT22;11895;48.738;9.320;2022-10-16T00:18:58;16.10;99.90
23445;DHT22;11895;48.738;9.320;2022-10-16T00:21:26;16.20;99.90
23445;DHT22;11895;48.738;9.320;2022-10-16T00:24:13;16.10;99.90
23445;DHT22;11895;48.738;9.320;2022-10-16T00:26:41;16.00;99.90
23445;DHT22;11895;48.738;9.320;2022-10-16T00:29:08;16.00;99.90
23445;DHT22;11895;48.738;9.320;2022-10-16T00:31:35;16.10;99.90
23445;DHT22;11895;48.738;9.320;2022-10-16T00:34:02;16.10;99.90
23445;DHT22;11895;48.738;9.320;2022-10-16T00:36:30;16.00;99.90
23445;DHT22;11895;48.738;9.320;2022-10-16T00:38:58;15.90;99.90
23445;DHT22;11895;48.738;9.320;2022-10-16T00:41:32;15.80;99.90
23445;DHT22;11895;48.738;9.320;2022-10-16T00:44:02;15.80;99.90
23445;DHT22;11895;48.738;9.320;2022-10-16T00:46:50;15.70;99.90
23445;DHT22;11895;48.738;9.320;2022-10-16T00:49:19;15.70;99.90
23445;DHT22;11895;48.738;9.320;2022-10-16T00:51:49;15.60;99.90
23445;DHT22;11895;48.738;9.320;2022-10-16T00:54:20;15.60;99.90
23445;DHT22;11895;48.738;9.320;2022-10-16T00:57:02;15.50;99.90
23445;DHT22;11895;48.738;9.320;2022-10-16T00:59:34;15.50;99.90
23445;DHT22;11895;48.738;9.320;2022-10-16T01:02:05;15.50;99.90
23445;DHT22;11895;48.738;9.320;2022-10-16T01:04:37;15.40;99.90
23445;DHT22;11895;48.738;9.320;2022-10-16T01:13:10;15.30;99.90
23445;DHT22;11895;48.738;9.320;2022-10-16T01:21:44;15.30;99.90
23445;DHT22;11895;48.738;9.320;2022-10-16T01:27:30;15.30;99.90
23445;DHT22;11895;48.738;9.320;2022-10-16T01:30:23;15.30;99.90
23445;DHT22;11895;48.738;9.320;2022-10-16T01:32:57;15.30;99.90
23445;DHT22;11895;48.738;9.320;2022-10-16T01:35:41;15.30;99.90
23445;DHT22;11895;48.738;9.320;2022-10-16T01:38:17;15.30;99.90
23445;DHT22;11895;48.738;9.320;2022-10-16T01:40:51;15.40;99.90
23445;DHT22;11895;48.738;9.320;2022-10-16T01:43:31;15.30;99.90
23445;DHT22;11895;48.738;9.320;2022-10-16T01:46:03;15.30;99.90
23445;DHT22;11895;48.738;9.320;2022-10-16T01:48:32;15.30;99.90
23445;DHT22;11895;48.738;9.320;2022-10-16T01:51:03;15.30;99.90
23445;DHT22;11895;48.738;9.320;2022-10-16T01:53:42;15.30;99.90
23445;DHT22;11895;48.738;9.320;2022-10-16T01:56:15;15.30;99.90
23445;DHT22;11895;48.738;9.320;2022-10-16T01:58:46;15.30;99.90
23445;DHT22;11895;48.738;9.320;2022-10-16T02:02:55;15.20;99.90
23445;DHT22;11895;48.738;9.320;2022-10-16T02:07:58;15.10;99.90
23445;DHT22;11895;48.738;9.320;2022-10-16T02:10:31;15.30;99.90
23445;DHT22;11895;48.738;9.320;2022-10-16T02:13:00;15.30;99.90
23445;DHT22;11895;48.738;9.320;2022-10-16T02:15:33;15.30;99.90
23445;DHT22;11895;48.738;9.320;2022-10-16T02:18:02;15.30;99.90
23445;DHT22;11895;48.738;9.320;2022-10-16T02:20:38;15.30;99.90
23445;DHT22;11895;48.738;9.320;2022-10-16T02:26:13;15.30;99.90
23445;DHT22;11895;48.738;9.320;2022-10-16T02:28:46;15.30;99.90
23445;DHT22;11895;48.738;9.320;2022-10-16T02:31:21;15.30;99.90
23445;DHT22;11895;48.738;9.320;2022-10-16T02:33:54;15.30;99.90
23445;DHT22;11895;48.738;9.320;2022-10-16T02:36:26;15.40;99.90
23445;DHT22;11895;48.738;9.320;2022-10-16T02:38:53;15.40;99.90
23445;DHT22;11895;48.738;9.320;2022-10-16T02:41:21;15.40;99.90
23445;DHT22;11895;48.738;9.320;2022-10-16T02:43:50;15.40;99.90
23445;DHT22;11895;48.738;9.320;2022-10-16T02:46:17;15.50;99.90
23445;DHT22;11895;48.738;9.320;2022-10-16T02:48:45;15.50;99.90
23445;DHT22;11895;48.738;9.320;2022-10-16T02:51:12;15.50;99.90
23445;DHT22;11895;48.738;9.320;2022-10-16T02:53:39;15.40;99.90
23445;DHT22;11895;48.738;9.320;2022-10-16T02:58:34;15.30;99.90
23445;DHT22;11895;48.738;9.320;2022-10-16T03:03:54;15.10;99.90
23445;DHT22;11895;48.738;9.320;2022-10-16T03:06:21;15.10;99.90
23445;DHT22;11895;48.738;9.320;2022-10-16T03:08:48;15.10;99.90
23445;DHT22;11895;48.738;9.320;2022-10-16T03:11:15;15.10;99.90
23445;DHT22;11895;48.738;9.320;2022-10-16T03:13:45;15.10;99.90
23445;DHT22;11895;48.738;9.320;2022-10-16T03:16:15;15.10;99.90
23445;DHT22;11895;48.738;9.320;2022-10-16T03:18:42;15.00;99.90
23445;DHT22;11895;48.738;9.320;2022-10-16T03:21:09;15.00;99.90
23445;DHT22;11895;48.738;9.320;2022-10-16T03:23:36;15.00;99.90
23445;DHT22;11895;48.738;9.320;2022-10-16T03:26:03;15.00;99.90
23445;DHT22;11895;48.738;9.320;2022-10-16T03:28:30;15.00;99.90
23445;DHT22;11895;48.738;9.320;2022-10-16T03:30:58;15.10;99.90
23445;DHT22;11895;48.738;9.320;2022-10-16T03:33:25;15.00;99.90
23445;DHT22;11895;48.738;9.320;2022-10-16T03:35:55;15.10;99.90
23445;DHT22;11895;48.738;9.320;2022-10-16T03:39:06;15.10;99.90
23445;DHT22;11895;48.738;9.320;2022-10-16T03:41:45;15.10;99.90
23445;DHT22;11895;48.738;9.320;2022-10-16T03:44:13;15.00;99.90
23445;DHT22;11895;48.738;9.320;2022-10-16T03:46:41;15.10;99.90
23445;DHT22;11895;48.738;9.320;2022-10-16T03:49:08;15.10;99.90
23445;DHT22;11895;48.738;9.320;2022-10-16T03:51:36;15.10;99.90
23445;DHT22;11895;48.738;9.320;2022-10-16T03:54:03;15.10;99.90
23445;DHT22;11895;48.738;9.320;2022-10-16T03:56:30;15.10;99.90
23445;DHT22;11895;48.738;9.320;2022-10-16T03:58:57;15.30;99.90
23445;DHT22;11895;48.738;9.320;2022-10-16T04:01:24;15.30;99.90
23445;DHT22;11895;48.738;9.320;2022-10-16T04:03:52;15.20;99.90
23445;DHT22;11895;48.738;9.320;2022-10-16T04:06:19;15.10;99.90
23445;DHT22;11895;48.738;9.320;2022-10-16T04:08:46;15.00;99.90
23445;DHT22;11895;48.738;9.320;2022-10-16T04:11:13;14.90;99.90
23445;DHT22;11895;48.738;9.320;2022-10-16T04:13:40;14.90;99.90
23445;DHT22;11895;48.738;9.320;2022-10-16T04:16:08;14.90;99.90
23445;DHT22;11895;48.738;9.320;2022-10-16T04:18:35;15.00;99.90
23445;DHT22;11895;48.738;9.320;2022-10-16T04:25:36;15.00;99.90
23445;DHT22;11895;48.738;9.320;2022-10-16T04:28:03;14.90;99.90
23445;DHT22;11895;48.738;9.320;2022-10-16T04:30:30;14.90;99.90
23445;DHT22;11895;48.738;9.320;2022-10-16T04:32:57;14.90;99.90
23445;DHT22;11895;48.738;9.320;2022-10-16T04:35:24;14.90;99.90
23445;DHT22;11895;48.738;9.320;2022-10-16T04:37:51;14.90;99.90
23445;DHT22;11895;48.738;9.320;2022-10-16T04:41:21;14.90;99.90
23445;DHT22;11895;48.738;9.320;2022-10-16T04:45:00;15.10;99.90
23445;DHT22;11895;48.738;9.320;2022-10-16T04:48:07;15.10;99.90
23445;DHT22;11895;48.738;9.320;2022-10-16T04:51:57;15.10;99.90
23445;DHT22;11895;48.738;9.320;2022-10-16T04:54:47;14.90;99.90
23445;DHT22;11895;48.738;9.320;2022-10-16T04:58:10;15.00;99.90
23445;DHT22;11895;48.738;9.320;2022-10-16T05:01:39;15.00;99.90
23445;DHT22;11895;48.738;9.320;2022-10-16T05:04:50;14.90;99.90
23445;DHT22;11895;48.738;9.320;2022-10-16T05:07:50;14.90;99.90
23445;DHT22;11895;48.738;9.320;2022-10-16T05:11:55;14.90;99.90
23445;DHT22;11895;48.738;9.320;2022-10-16T05:14:25;14.90;99.90
23445;DHT22;11895;48.738;9.320;2022-10-16T05:17:51;14.90;99.90
23445;DHT22;11895;48.738;9.320;2022-10-16T05:20:24;15.10;99.90
23445;DHT22;11895;48.738;9.320;2022-10-16T05:22:58;15.10;99.90
23445;DHT22;11895;48.738;9.320;2022-10-16T05:25:30;15.00;99.90
23445;DHT22;11895;48.738;9.320;2022-10-16T05:29:05;14.80;99.90
23445;DHT22;11895;48.738;9.320;2022-10-16T05:31:33;14.70;99.90
23445;DHT22;11895;48.738;9.320;2022-10-16T05:34:02;14.80;99.90
23445;DHT22;11895;48.738;9.320;2022-10-16T05:36:35;14.70;99.90
23445;DHT22;11895;48.738;9.320;2022-10-16T05:39:10;14.70;99.90
23445;DHT22;11895;48.738;9.320;2022-10-16T05:41:46;14.70;99.90
23445;DHT22;11895;48.738;9.320;2022-10-16T05:44:13;14.80;99.90
23445;DHT22;11895;48.738;9.320;2022-10-16T05:46:40;14.70;99.90
23445;DHT22;11895;48.738;9.320;2022-10-16T05:49:08;14.70;99.90
23445;DHT22;11895;48.738;9.320;2022-10-16T05:51:35;14.70;99.90
23445;DHT22;11895;48.738;9.320;2022-10-16T05:54:02;14.70;99.90
23445;DHT22;11895;48.738;9.320;2022-10-16T05:56:30;14.80;99.90
23445;DHT22;11895;48.738;9.320;2022-10-16T05:58:57;14.70;99.90
23445;DHT22;11895;48.738;9.320;2022-10-16T06:01:24;14.70;99.90
23445;DHT22;11895;48.738;9.320;2022-10-16T06:03:51;14.70;99.90
23445;DHT22;11895;48.738;9.320;2022-10-16T06:06:21;14.80;99.90
23445;DHT22;11895;48.738;9.320;2022-10-16T06:08:52;14.80;99.90
23445;DHT22;11895;48.738;9.320;2022-10-16T06:11:22;14.80;99.90
23445;DHT22;11895;48.738;9.320;2022-10-16T06:13:54;14.80;99.90
23445;DHT22;11895;48.738;9.320;2022-10-16T06:16:24;14.80;99.90
23445;DHT22;11895;48.738;9.320;2022-10-16T06:18:53;14.90;99.90
23445;DHT22;11895;48.738;9.320;2022-10-16T06:21:27;15.00;99.90
23445;DHT22;11895;48.738;9.320;2022-10-16T06:23:56;14.90;99.90
23445;DHT22;11895;48.738;9.320;2022-10-16T06:26:25;15.00;99.90
23445;DHT22;11895;48.738;9.320;2022-10-16T06:28:55;15.00;99.90
23445;DHT22;11895;48.738;9.320;2022-10-16T06:31:24;15.10;99.90
23445;DHT22;11895;48.738;9.320;2022-10-16T06:33:55;15.10;99.90
23445;DHT22;11895;48.738;9.320;2022-10-16T06:36:23;15.10;99.90
23445;DHT22;11895;48.738;9.320;2022-10-16T06:38:52;15.10;99.90
23445;DHT22;11895;48.738;9.320;2022-10-16T06:41:20;15.20;99.90
23445;DHT22;11895;48.738;9.320;2022-10-16T06:43:49;15.30;99.90
23445;DHT22;11895;48.738;9.320;2022-10-16T06:46:20;15.40;99.90
23445;DHT22;11895;48.738;9.320;2022-10-16T06:49:21;15.40;99.90
23445;DHT22;11895;48.738;9.320;2022-10-16T06:52:02;15.60;99.90
23445;DHT22;11895;48.738;9.320;2022-10-16T06:54:29;15.70;99.90
23445;DHT22;11895;48.738;9.320;2022-10-16T06:57:10;15.80;99.90
23445;DHT22;11895;48.738;9.320;2022-10-16T06:59:37;15.90;99.90
23445;DHT22;11895;48.738;9.320;2022-10-16T07:02:05;16.10;99.90
23445;DHT22;11895;48.738;9.320;2022-10-16T07:04:33;16.10;99.90
23445;DHT22;11895;48.738;9.320;2022-10-16T07:07:03;16.10;99.90
23445;DHT22;11895;48.738;9.320;2022-10-16T07:09:34;16.00;99.90
23445;DHT22;11895;48.738;9.320;2022-10-16T07:12:02;16.10;99.90
23445;DHT22;11895;48.738;9.320;2022-10-16T07:14:29;16.20;99.90
23445;DHT22;11895;48.738;9.320;2022-10-16T07:16:56;16.20;99.90
23445;DHT22;11895;48.738;9.320;2022-10-16T07:19:24;16.30;99.90
23445;DHT22;11895;48.738;9.320;2022-10-16T07:21:59;16.40;99.90
23445;DHT22;11895;48.738;9.320;2022-10-16T07:25:21;16.50;99.90
23445;DHT22;11895;48.738;9.320;2022-10-16T07:29:25;16.60;99.90
23445;DHT22;11895;48.738;9.320;2022-10-16T07:32:45;16.60;99.90
23445;DHT22;11895;48.738;9.320;2022-10-16T07:41:42;16.70;99.90
23445;DHT22;11895;48.738;9.320;2022-10-16T07:45:15;16.80;99.90
23445;DHT22;11895;48.738;9.320;2022-10-16T07:47:44;17.00;99.90
23445;DHT22;11895;48.738;9.320;2022-10-16T07:50:11;17.00;99.90
23445;DHT22;11895;48.738;9.320;2022-10-16T07:52:38;17.10;99.90
23445;DHT22;11895;48.738;9.320;2022-10-16T07:55:05;17.20;99.90
23445;DHT22;11895;48.738;9.320;2022-10-16T07:57:33;17.30;99.90
23445;DHT22;11895;48.738;9.320;2022-10-16T08:00:00;17.30;99.90
23445;DHT22;11895;48.738;9.320;2022-10-16T08:02:37;17.50;99.90
23445;DHT22;11895;48.738;9.320;2022-10-16T08:05:05;17.50;99.90
23445;DHT22;11895;48.738;9.320;2022-10-16T08:07:33;17.50;99.90
23445;DHT22;11895;48.738;9.320;2022-10-16T08:10:00;17.60;99.90
23445;DHT22;11895;48.738;9.320;2022-10-16T08:12:27;17.70;99.90
23445;DHT22;11895;48.738;9.320;2022-10-16T08:14:56;17.90;99.90
23445;DHT22;11895;48.738;9.320;2022-10-16T08:17:23;18.00;99.90
23445;DHT22;11895;48.738;9.320;2022-10-16T08:19:51;18.10;99.90
23445;DHT22;11895;48.738;9.320;2022-10-16T08:22:18;18.20;99.90
23445;DHT22;11895;48.738;9.320;2022-10-16T08:24:45;18.40;99.90
23445;DHT22;11895;48.738;9.320;2022-10-16T08:27:13;18.50;99.90
23445;DHT22;11895;48.738;9.320;2022-10-16T08:29:40;18.50;99.90
23445;DHT22;11895;48.738;9.320;2022-10-16T08:32:07;18.60;99.90
23445;DHT22;11895;48.738;9.320;2022-10-16T08:34:34;18.90;99.90
23445;DHT22;11895;48.738;9.320;2022-10-16T08:37:01;19.10;99.90
23445;DHT22;11895;48.738;9.320;2022-10-16T08:39:28;19.20;99.90
23445;DHT22;11895;48.738;9.320;2022-10-16T08:41:59;19.30;99.90
23445;DHT22;11895;48.738;9.320;2022-10-16T08:47:35;19.40;99.90
23445;DHT22;11895;48.738;9.320;2022-10-16T08:50:12;19.50;99.90
23445;DHT22;11895;48.738;9.320;2022-10-16T08:52:46;19.60;99.90
23445;DHT22;11895;48.738;9.320;2022-10-16T08:55:23;19.50;99.90
23445;DHT22;11895;48.738;9.320;2022-10-16T08:58:01;19.50;99.90
23445;DHT22;11895;48.738;9.320;2022-10-16T09:00:28;19.50;99.90
23445;DHT22;11895;48.738;9.320;2022-10-16T09:12:21;19.70;99.90
23445;DHT22;11895;48.738;9.320;2022-10-16T09:15:06;20.10;99.90
23445;DHT22;11895;48.738;9.320;2022-10-16T09:17:48;20.30;99.90
23445;DHT22;11895;48.738;9.320;2022-10-16T09:23:08;20.80;99.90
23445;DHT22;11895;48.738;9.320;2022-10-16T09:25:43;21.10;99.90
23445;DHT22;11895;48.738;9.320;2022-10-16T09:28:14;21.30;99.90
23445;DHT22;11895;48.738;9.320;2022-10-16T09:30:44;21.50;99.90
23445;DHT22;11895;48.738;9.320;2022-10-16T09:33:12;21.50;99.90
23445;DHT22;11895;48.738;9.320;2022-10-16T09:35:51;21.70;99.90
23445;DHT22;11895;48.738;9.320;2022-10-16T09:38:43;21.80;99.90
23445;DHT22;11895;48.738;9.320;2022-10-16T09:46:26;22.40;99.90
23445;DHT22;11895;48.738;9.320;2022-10-16T09:49:26;22.50;99.90
23445;DHT22;11895;48.738;9.320;2022-10-16T09:52:11;22.80;99.90
23445;DHT22;11895;48.738;9.320;2022-10-16T09:57:19;23.00;99.90
23445;DHT22;11895;48.738;9.320;2022-10-16T09:59:48;22.70;99.90
23445;DHT22;11895;48.738;9.320;2022-10-16T10:02:29;22.70;99.90
23445;DHT22;11895;48.738;9.320;2022-10-16T10:05:00;22.60;99.90
23445;DHT22;11895;48.738;9.320;2022-10-16T10:07:33;22.70;99.90
23445;DHT22;11895;48.738;9.320;2022-10-16T10:10:05;22.70;99.90
23445;DHT22;11895;48.738;9.320;2022-10-16T10:12:47;22.90;99.90
23445;DHT22;11895;48.738;9.320;2022-10-16T10:15:14;23.20;99.90
23445;DHT22;11895;48.738;9.320;2022-10-16T10:17:51;23.60;99.90
23445;DHT22;11895;48.738;9.320;2022-10-16T10:20:28;23.90;99.90
23445;DHT22;11895;48.738;9.320;2022-10-16T10:23:13;24.20;99.90
23445;DHT22;11895;48.738;9.320;2022-10-16T10:25:50;24.40;99.90
23445;DHT22;11895;48.738;9.320;2022-10-16T10:31:27;24.40;99.90
23445;DHT22;11895;48.738;9.320;2022-10-16T10:41:07;24.90;99.90
23445;DHT22;11895;48.738;9.320;2022-10-16T10:46:59;24.50;99.90
23445;DHT22;11895;48.738;9.320;2022-10-16T11:07:15;24.90;99.90
23445;DHT22;11895;48.738;9.320;2022-10-16T11:09:49;24.90;99.90
23445;DHT22;11895;48.738;9.320;2022-10-16T11:12:27;25.10;99.90
23445;DHT22;11895;48.738;9.320;2022-10-16T11:17:36;25.20;99.90
23445;DHT22;11895;48.738;9.320;2022-10-16T11:25:21;25.50;99.90
23445;DHT22;11895;48.738;9.320;2022-10-16T11:33:32;26.00;99.90
23445;DHT22;11895;48.738;9.320;2022-10-16T11:36:35;26.20;99.90
23445;DHT22;11895;48.738;9.320;2022-10-16T11:42:32;26.50;99.90
23445;DHT22;11895;48.738;9.320;2022-10-16T11:55:09;26.90;99.90
23445;DHT22;11895;48.738;9.320;2022-10-16T11:57:20;26.90;99.90
23445;DHT22;11895;48.738;9.320;2022-10-16T12:00:08;26.90;99.90
23445;DHT22;11895;48.738;9.320;2022-10-16T12:02:54;27.20;99.90
23445;DHT22;11895;48.738;9.320;2022-10-16T12:05:30;28.80;99.90
23445;DHT22;11895;48.738;9.320;2022-10-16T12:08:10;30.50;99.90
23445;DHT22;11895;48.738;9.320;2022-10-16T12:10:41;31.50;98.00
23445;DHT22;11895;48.738;9.320;2022-10-16T12:18:40;32.90;93.40
23445;DHT22;11895;48.738;9.320;2022-10-16T12:21:16;33.70;91.00
23445;DHT22;11895;48.738;9.320;2022-10-16T12:23:50;34.50;87.90
23445;DHT22;11895;48.738;9.320;2022-10-16T12:26:26;35.20;82.90
23445;DHT22;11895;48.738;9.320;2022-10-16T12:29:08;35.10;81.80
23445;DHT22;11895;48.738;9.320;2022-10-16T12:31:56;35.20;81.60
23445;DHT22;11895;48.738;9.320;2022-10-16T12:34:36;36.10;76.60
23445;DHT22;11895;48.738;9.320;2022-10-16T12:37:26;35.90;76.90
23445;DHT22;11895;48.738;9.320;2022-10-16T12:40:11;35.10;77.50
23445;DHT22;11895;48.738;9.320;2022-10-16T12:42:43;34.60;77.10
23445;DHT22;11895;48.738;9.320;2022-10-16T12:45:58;33.70;76.50
23445;DHT22;11895;48.738;9.320;2022-10-16T12:48:02;32.60;79.60
23445;DHT22;11895;48.738;9.320;2022-10-16T12:50:45;31.60;82.20
23445;DHT22;11895;48.738;9.320;2022-10-16T12:53:20;31.10;85.40
23445;DHT22;11895;48.738;9.320;2022-10-16T12:55:52;31.90;84.00
23445;DHT22;11895;48.738;9.320;2022-10-16T13:01:18;32.70;81.30
23445;DHT22;11895;48.738;9.320;2022-10-16T13:06:51;31.40;83.20
23445;DHT22;11895;48.738;9.320;2022-10-16T13:18:59;29.40;88.40
23445;DHT22;11895;48.738;9.320;2022-10-16T13:33:30;30.20;87.00
23445;DHT22;11895;48.738;9.320;2022-10-16T13:36:21;30.30;87.40
23445;DHT22;11895;48.738;9.320;2022-10-16T13:42:10;31.20;84.20
23445;DHT22;11895;48.738;9.320;2022-10-16T13:44:44;31.60;84.80
23445;DHT22;11895;48.738;9.320;2022-10-16T13:47:26;31.30;84.70
23445;DHT22;11895;48.738;9.320;2022-10-16T13:52:39;30.90;80.10
23445;DHT22;11895;48.738;9.320;2022-10-16T13:55:12;30.30;82.00
23445;DHT22;11895;48.738;9.320;2022-10-16T13:57:45;29.90;84.30
23445;DHT22;11895;48.738;9.320;2022-10-16T14:02:50;29.40;84.10
23445;DHT22;11895;48.738;9.320;2022-10-16T14:07:52;29.00;87.60
23445;DHT22;11895;48.738;9.320;2022-10-16T14:14:23;29.00;88.30
23445;DHT22;11895;48.738;9.320;2022-10-16T14:17:22;29.00;88.80
23445;DHT22;11895;48.738;9.320;2022-10-16T14:20:04;29.00;89.40
23445;DHT22;11895;48.738;9.320;2022-10-16T14:23:04;28.80;88.80
23445;DHT22;11895;48.738;9.320;2022-10-16T14:26:18;28.60;90.00
23445;DHT22;11895;48.738;9.320;2022-10-16T14:28:48;28.30;90.50
23445;DHT22;11895;48.738;9.320;2022-10-16T14:32:23;28.30;91.20
23445;DHT22;11895;48.738;9.320;2022-10-16T14:35:00;28.20;90.40
23445;DHT22;11895;48.738;9.320;2022-10-16T14:37:28;28.20;90.70
23445;DHT22;11895;48.738;9.320;2022-10-16T14:40:04;28.10;91.60
23445;DHT22;11895;48.738;9.320;2022-10-16T14:42:45;28.00;91.40
23445;DHT22;11895;48.738;9.320;2022-10-16T14:48:19;27.50;91.60
23445;DHT22;11895;48.738;9.320;2022-10-16T14:50:47;27.30;91.90
23445;DHT22;11895;48.738;9.320;2022-10-16T14:53:14;27.30;92.30
23445;DHT22;11895;48.738;9.320;2022-10-16T14:55:42;27.60;92.30
23445;DHT22;11895;48.738;9.320;2022-10-16T14:58:23;27.80;91.90
23445;DHT22;11895;48.738;9.320;2022-10-16T15:00:52;28.10;92.40
23445;DHT22;11895;48.738;9.320;2022-10-16T15:03:39;28.40;91.40
23445;DHT22;11895;48.738;9.320;2022-10-16T15:06:13;28.70;92.00
23445;DHT22;11895;48.738;9.320;2022-10-16T15:08:42;29.00;91.20
23445;DHT22;11895;48.738;9.320;2022-10-16T15:11:13;29.40;90.80
23445;DHT22;11895;48.738;9.320;2022-10-16T15:13:44;29.30;90.80
23445;DHT22;11895;48.738;9.320;2022-10-16T15:16:13;29.30;90.60
23445;DHT22;11895;48.738;9.320;2022-10-16T15:18:42;29.20;90.60
23445;DHT22;11895;48.738;9.320;2022-10-16T15:21:27;29.10;90.40
23445;DHT22;11895;48.738;9.320;2022-10-16T15:23:57;29.00;91.10
23445;DHT22;11895;48.738;9.320;2022-10-16T15:26:26;28.90;91.00
23445;DHT22;11895;48.738;9.320;2022-10-16T15:28:56;29.00;91.60
23445;DHT22;11895;48.738;9.320;2022-10-16T15:31:23;29.30;91.10
23445;DHT22;11895;48.738;9.320;2022-10-16T15:33:51;29.50;91.70
23445;DHT22;11895;48.738;9.320;2022-10-16T15:36:29;30.00;90.10
23445;DHT22;11895;48.738;9.320;2022-10-16T15:39:21;30.10;90.40
23445;DHT22;11895;48.738;9.320;2022-10-16T15:41:48;29.70;91.30
23445;DHT22;11895;48.738;9.320;2022-10-16T15:44:20;28.90;92.00
23445;DHT22;11895;48.738;9.320;2022-10-16T15:46:49;28.40;93.00
23445;DHT22;11895;48.738;9.320;2022-10-16T15:49:17;27.70;93.60
23445;DHT22;11895;48.738;9.320;2022-10-16T15:51:44;27.20;93.90
23445;DHT22;11895;48.738;9.320;2022-10-16T15:54:37;26.80;95.00
23445;DHT22;11895;48.738;9.320;2022-10-16T15:57:04;26.70;94.40
23445;DHT22;11895;48.738;9.320;2022-10-16T15:59:37;26.60;94.40
23445;DHT22;11895;48.738;9.320;2022-10-16T16:02:04;26.30;95.20
23445;DHT22;11895;48.738;9.320;2022-10-16T16:04:32;26.10;95.40
23445;DHT22;11895;48.738;9.320;2022-10-16T16:07:14;25.80;95.90
23445;DHT22;11895;48.738;9.320;2022-10-16T16:09:41;25.30;97.10
23445;DHT22;11895;48.738;9.320;2022-10-16T16:12:10;25.10;98.40
23445;DHT22;11895;48.738;9.320;2022-10-16T16:14:38;24.80;98.70
23445;DHT22;11895;48.738;9.320;2022-10-16T16:17:05;24.50;99.50
23445;DHT22;11895;48.738;9.320;2022-10-16T16:19:33;24.30;99.90
23445;DHT22;11895;48.738;9.320;2022-10-16T16:22:00;24.10;99.90
23445;DHT22;11895;48.738;9.320;2022-10-16T16:24:28;23.90;99.90
23445;DHT22;11895;48.738;9.320;2022-10-16T16:26:55;23.70;99.90
23445;DHT22;11895;48.738;9.320;2022-10-16T16:29:23;23.60;99.90
23445;DHT22;11895;48.738;9.320;2022-10-16T16:31:50;23.40;99.90
23445;DHT22;11895;48.738;9.320;2022-10-16T16:34:24;23.20;99.90
23445;DHT22;11895;48.738;9.320;2022-10-16T16:36:53;23.00;99.90
23445;DHT22;11895;48.738;9.320;2022-10-16T16:39:21;22.80;99.90
23445;DHT22;11895;48.738;9.320;2022-10-16T16:41:49;22.60;99.90
23445;DHT22;11895;48.738;9.320;2022-10-16T16:44:16;22.50;99.90
23445;DHT22;11895;48.738;9.320;2022-10-16T16:46:44;22.30;99.90
23445;DHT22;11895;48.738;9.320;2022-10-16T16:49:12;22.30;99.90
23445;DHT22;11895;48.738;9.320;2022-10-16T16:51:42;22.10;99.90
23445;DHT22;11895;48.738;9.320;2022-10-16T16:54:15;21.90;99.90
23445;DHT22;11895;48.738;9.320;2022-10-16T16:56:49;21.70;99.90
23445;DHT22;11895;48.738;9.320;2022-10-16T16:59:23;21.50;99.90
23445;DHT22;11895;48.738;9.320;2022-10-16T17:02:08;21.40;99.90
23445;DHT22;11895;48.738;9.320;2022-10-16T17:04:39;21.30;99.90
23445;DHT22;11895;48.738;9.320;2022-10-16T17:07:09;21.20;99.90
23445;DHT22;11895;48.738;9.320;2022-10-16T17:09:36;21.10;99.90
23445;DHT22;11895;48.738;9.320;2022-10-16T17:12:04;21.10;99.90
23445;DHT22;11895;48.738;9.320;2022-10-16T17:14:51;21.00;99.90
23445;DHT22;11895;48.738;9.320;2022-10-16T17:17:30;21.00;99.90
23445;DHT22;11895;48.738;9.320;2022-10-16T17:20:03;20.80;99.90
23445;DHT22;11895;48.738;9.320;2022-10-16T17:22:39;20.70;99.90
23445;DHT22;11895;48.738;9.320;2022-10-16T17:25:20;20.50;99.90
23445;DHT22;11895;48.738;9.320;2022-10-16T17:27:54;20.40;99.90
23445;DHT22;11895;48.738;9.320;2022-10-16T17:30:24;20.40;99.90
23445;DHT22;11895;48.738;9.320;2022-10-16T17:33:08;20.40;99.90
23445;DHT22;11895;48.738;9.320;2022-10-16T17:35:40;20.40;99.90
23445;DHT22;11895;48.738;9.320;2022-10-16T17:38:26;19.80;99.90
23445;DHT22;11895;48.738;9.320;2022-10-16T17:41:10;20.10;99.90
23445;DHT22;11895;48.738;9.320;2022-10-16T17:43:38;19.90;99.90
23445;DHT22;11895;48.738;9.320;2022-10-16T17:46:11;19.80;99.90
23445;DHT22;11895;48.738;9.320;2022-10-16T17:48:42;19.70;99.90
23445;DHT22;11895;48.738;9.320;2022-10-16T17:51:31;19.60;99.90
23445;DHT22;11895;48.738;9.320;2022-10-16T17:54:01;19.50;99.90
23445;DHT22;11895;48.738;9.320;2022-10-16T17:56:52;19.70;99.90
23445;DHT22;11895;48.738;9.320;2022-10-16T17:59:20;19.40;99.90
23445;DHT22;11895;48.738;9.320;2022-10-16T18:01:52;19.30;99.90
23445;DHT22;11895;48.738;9.320;2022-10-16T18:04:20;19.10;99.90
23445;DHT22;11895;48.738;9.320;2022-10-16T18:07:00;19.10;99.90
23445;DHT22;11895;48.738;9.320;2022-10-16T18:09:27;19.00;99.90
23445;DHT22;11895;48.738;9.320;2022-10-16T18:11:55;18.90;99.90
23445;DHT22;11895;48.738;9.320;2022-10-16T18:14:29;18.90;99.90
23445;DHT22;11895;48.738;9.320;2022-10-16T18:16:58;18.90;99.90
23445;DHT22;11895;48.738;9.320;2022-10-16T18:19:28;18.70;99.90
23445;DHT22;11895;48.738;9.320;2022-10-16T18:22:24;18.70;99.90
23445;DHT22;11895;48.738;9.320;2022-10-16T18:24:53;18.60;99.90
23445;DHT22;11895;48.738;9.320;2022-10-16T18:27:20;18.50;99.90
23445;DHT22;11895;48.738;9.320;2022-10-16T18:29:47;18.30;99.90
23445;DHT22;11895;48.738;9.320;2022-10-16T18:35:02;18.10;99.90
23445;DHT22;11895;48.738;9.320;2022-10-16T18:37:37;18.00;99.90
23445;DHT22;11895;48.738;9.320;2022-10-16T18:40:04;17.90;99.90
23445;DHT22;11895;48.738;9.320;2022-10-16T18:42:34;17.80;99.90
23445;DHT22;11895;48.738;9.320;2022-10-16T18:45:02;17.90;99.90
23445;DHT22;11895;48.738;9.320;2022-10-16T18:47:36;17.80;99.90
23445;DHT22;11895;48.738;9.320;2022-10-16T18:50:24;17.70;99.90
23445;DHT22;11895;48.738;9.320;2022-10-16T18:52:59;17.60;99.90
23445;DHT22;11895;48.738;9.320;2022-10-16T18:55:52;17.60;99.90
23445;DHT22;11895;48.738;9.320;2022-10-16T18:58:22;17.60;99.90
23445;DHT22;11895;48.738;9.320;2022-10-16T19:01:07;17.50;99.90
23445;DHT22;11895;48.738;9.320;2022-10-16T19:03:53;17.50;99.90
23445;DHT22;11895;48.738;9.320;2022-10-16T19:06:28;17.40;99.90
23445;DHT22;11895;48.738;9.320;2022-10-16T19:09:02;17.40;99.90
23445;DHT22;11895;48.738;9.320;2022-10-16T19:11:51;17.20;99.90
23445;DHT22;11895;48.738;9.320;2022-10-16T19:14:21;17.20;99.90